Time;durP1;ratioP1;P1;durP2;ratioP2;P2;SDS_P1;SDS_P2;PMS_P1;PMS_P2;Temp;Humidity;BMP_temperature;BMP_pressure;BME280_temperature;BME280_humidity;BME280_pressure;Samples;Min_cycle;Max_cycle;Signal;HPM_P1;HPM_P2
2022/10/27 00:00:05;;;;;;;;;;;9.50;99.90;;;;;;5070768;28;19916;-82
2022/10/27 00:02:30;;;;;;;;;;;9.70;99.90;;;;;;5073983;28;19964;-83
2022/10/27 00:04:56;;;;;;;;;;;9.60;99.90;;;;;;5072025;28;20615;-82
2022/10/27 00:07:21;;;;;;;;;;;9.40;99.90;;;;;;5088123;28;19916;-82
2022/10/27 00:09:47;;;;;;;;;;;9.30;99.90;;;;;;5062300;28;19928;-82
2022/10/27 00:12:12;;;;;;;;;;;9.20;99.90;;;;;;5060738;28;19974;-82
2022/10/27 00:14:39;;;;;;;;;;;9.10;99.90;;;;;;5057653;28;19916;-82
2022/10/27 00:17:04;;;;;;;;;;;9.00;99.90;;;;;;5079829;28;19912;-82
2022/10/27 00:19:30;;;;;;;;;;;8.90;99.90;;;;;;5076821;28;19930;-82
2022/10/27 00:21:55;;;;;;;;;;;8.80;99.90;;;;;;5058455;28;20014;-82
2022/10/27 00:24:21;;;;;;;;;;;8.90;99.90;;;;;;5065602;28;19974;-82
2022/10/27 00:26:46;;;;;;;;;;;8.90;99.90;;;;;;5075681;28;19916;-82
2022/10/27 00:29:12;;;;;;;;;;;8.80;99.90;;;;;;5064553;28;20295;-82
2022/10/27 00:31:38;;;;;;;;;;;8.80;99.90;;;;;;5066964;28;20387;-82
2022/10/27 00:34:03;;;;;;;;;;;8.80;99.90;;;;;;5072292;28;19956;-82
2022/10/27 00:36:29;;;;;;;;;;;8.90;99.90;;;;;;5069489;28;19951;-82
2022/10/27 00:38:56;;;;;;;;;;;8.70;99.90;;;;;;5083498;28;20356;-82
2022/10/27 00:41:29;;;;;;;;;;;8.80;99.90;;;;;;5076718;28;19912;-83
2022/10/27 00:43:56;;;;;;;;;;;8.80;99.90;;;;;;5071333;28;19935;-82
2022/10/27 00:46:30;;;;;;;;;;;8.80;99.90;;;;;;5085971;28;20010;-82
2022/10/27 00:48:58;;;;;;;;;;;8.80;99.90;;;;;;5079731;28;19916;-82
2022/10/27 00:51:24;;;;;;;;;;;8.70;99.90;;;;;;5074488;28;20007;-82
2022/10/27 00:53:49;;;;;;;;;;;8.70;99.90;;;;;;5086027;28;19954;-83
2022/10/27 00:56:16;;;;;;;;;;;8.70;99.90;;;;;;5077511;28;19917;-82
2022/10/27 00:58:44;;;;;;;;;;;8.70;99.90;;;;;;5054598;28;19927;-83
2022/10/27 01:01:09;;;;;;;;;;;8.80;99.90;;;;;;5062041;28;19923;-82
2022/10/27 01:03:35;;;;;;;;;;;8.80;99.90;;;;;;5082877;28;19912;-82
2022/10/27 01:06:01;;;;;;;;;;;8.90;99.90;;;;;;5055162;28;19929;-83
2022/10/27 01:08:26;;;;;;;;;;;8.80;99.90;;;;;;5070495;28;19974;-82
2022/10/27 01:10:52;;;;;;;;;;;8.80;99.90;;;;;;5078473;28;19924;-82
2022/10/27 01:13:18;;;;;;;;;;;8.80;99.90;;;;;;5068690;28;20387;-82
2022/10/27 01:16:01;;;;;;;;;;;8.70;99.90;;;;;;5078053;28;19924;-82
2022/10/27 01:18:36;;;;;;;;;;;8.70;99.90;;;;;;5082338;28;19927;-83
2022/10/27 01:21:04;;;;;;;;;;;8.70;99.90;;;;;;5078630;28;19920;-83
2022/10/27 01:23:48;;;;;;;;;;;8.60;99.90;;;;;;5066001;28;19984;-82
2022/10/27 01:26:30;;;;;;;;;;;8.60;99.90;;;;;;5070353;28;19967;-82
2022/10/27 01:28:55;;;;;;;;;;;8.60;99.90;;;;;;5070901;28;19920;-82
2022/10/27 01:31:24;;;;;;;;;;;8.60;99.90;;;;;;5085681;28;19920;-82
2022/10/27 01:33:58;;;;;;;;;;;8.60;99.90;;;;;;5083554;28;19955;-82
2022/10/27 01:36:45;;;;;;;;;;;8.60;99.90;;;;;;5073329;28;19913;-82
2022/10/27 01:39:20;;;;;;;;;;;8.50;99.90;;;;;;5081513;28;19916;-82
2022/10/27 01:41:50;;;;;;;;;;;8.50;99.90;;;;;;5064587;28;20427;-82
2022/10/27 01:44:21;;;;;;;;;;;8.40;99.90;;;;;;5065870;28;19924;-82
2022/10/27 01:46:48;;;;;;;;;;;8.30;99.90;;;;;;5084812;28;20337;-83
2022/10/27 01:49:14;;;;;;;;;;;8.30;99.90;;;;;;5061732;28;19974;-82
2022/10/27 01:51:39;;;;;;;;;;;8.20;99.90;;;;;;5074628;28;20464;-82
2022/10/27 01:54:05;;;;;;;;;;;8.20;99.90;;;;;;5085366;28;19928;-82
2022/10/27 01:56:46;;;;;;;;;;;8.30;99.90;;;;;;5078232;28;19967;-82
2022/10/27 01:59:11;;;;;;;;;;;8.20;99.90;;;;;;5079516;28;19916;-82
2022/10/27 02:01:37;;;;;;;;;;;8.20;99.90;;;;;;5076793;28;19927;-82
2022/10/27 02:04:05;;;;;;;;;;;8.20;99.90;;;;;;5069051;28;20363;-82
2022/10/27 02:06:40;;;;;;;;;;;8.20;99.90;;;;;;5064930;28;19920;-82
2022/10/27 02:09:08;;;;;;;;;;;8.20;99.90;;;;;;5085670;28;19920;-82
2022/10/27 02:11:36;;;;;;;;;;;8.20;99.90;;;;;;5078131;28;19916;-82
2022/10/27 02:14:02;;;;;;;;;;;8.20;99.90;;;;;;5084091;28;20405;-82
2022/10/27 02:16:29;;;;;;;;;;;8.20;99.90;;;;;;5092665;28;19913;-83
2022/10/27 02:19:04;;;;;;;;;;;8.10;99.90;;;;;;5092026;28;19916;-82
2022/10/27 02:21:31;;;;;;;;;;;8.10;99.90;;;;;;5075065;28;19916;-82
2022/10/27 02:23:57;;;;;;;;;;;8.10;99.90;;;;;;5082686;28;19927;-81
2022/10/27 02:26:26;;;;;;;;;;;8.10;99.90;;;;;;5073248;28;19920;-83
2022/10/27 02:28:57;;;;;;;;;;;8.00;99.90;;;;;;5067894;28;19931;-82
2022/10/27 02:31:26;;;;;;;;;;;8.00;99.90;;;;;;5080144;28;19920;-82
2022/10/27 02:33:52;;;;;;;;;;;7.90;99.90;;;;;;5077191;28;20367;-82
2022/10/27 02:36:18;;;;;;;;;;;8.00;99.90;;;;;;5069157;28;19916;-82
2022/10/27 02:38:43;;;;;;;;;;;8.10;99.90;;;;;;5064976;28;20435;-82
2022/10/27 02:41:09;;;;;;;;;;;8.00;99.90;;;;;;5070592;28;19966;-82
2022/10/27 02:43:34;;;;;;;;;;;8.00;99.90;;;;;;5069592;28;20059;-82
2022/10/27 02:46:00;;;;;;;;;;;7.90;99.90;;;;;;5085324;28;20660;-83
2022/10/27 02:48:25;;;;;;;;;;;7.90;99.90;;;;;;5076985;28;19947;-82
2022/10/27 02:50:51;;;;;;;;;;;7.80;99.90;;;;;;5069465;28;19916;-82
2022/10/27 02:53:16;;;;;;;;;;;7.80;99.90;;;;;;5082523;28;19955;-82
2022/10/27 02:55:42;;;;;;;;;;;7.70;99.90;;;;;;5066314;28;19959;-82
2022/10/27 02:58:07;;;;;;;;;;;7.70;99.90;;;;;;5053607;28;19916;-82
2022/10/27 03:00:33;;;;;;;;;;;7.70;99.90;;;;;;5078867;28;20284;-82
2022/10/27 03:02:58;;;;;;;;;;;7.50;99.90;;;;;;5066004;28;19927;-82
2022/10/27 03:05:24;;;;;;;;;;;7.50;99.90;;;;;;5071295;28;20015;-82
2022/10/27 03:07:49;;;;;;;;;;;7.50;99.90;;;;;;5069152;28;20333;-82
2022/10/27 03:10:15;;;;;;;;;;;7.50;99.90;;;;;;5058841;28;19921;-82
2022/10/27 03:12:40;;;;;;;;;;;7.70;99.90;;;;;;5054575;28;19921;-82
2022/10/27 03:15:06;;;;;;;;;;;7.70;99.90;;;;;;5080684;28;20367;-82
2022/10/27 03:17:31;;;;;;;;;;;7.70;99.90;;;;;;5062620;28;19924;-81
2022/10/27 03:19:57;;;;;;;;;;;7.80;99.90;;;;;;5079612;28;20288;-81
2022/10/27 03:22:22;;;;;;;;;;;7.60;99.90;;;;;;5073198;28;19928;-82
2022/10/27 03:24:48;;;;;;;;;;;7.50;99.90;;;;;;5075071;28;19938;-82
2022/10/27 03:27:13;;;;;;;;;;;7.50;99.90;;;;;;5056204;28;19956;-82
2022/10/27 03:29:39;;;;;;;;;;;7.60;99.90;;;;;;5077231;28;20371;-82
2022/10/27 03:32:04;;;;;;;;;;;7.60;99.90;;;;;;5080764;28;19928;-82
2022/10/27 03:34:30;;;;;;;;;;;7.60;99.90;;;;;;5075387;28;20370;-82
2022/10/27 03:36:55;;;;;;;;;;;7.50;99.90;;;;;;5073877;28;19938;-81
2022/10/27 03:39:21;;;;;;;;;;;7.60;99.90;;;;;;5060449;28;20018;-81
2022/10/27 03:41:46;;;;;;;;;;;7.50;99.90;;;;;;5074614;28;19921;-81
2022/10/27 03:44:12;;;;;;;;;;;7.50;99.90;;;;;;5073161;28;19973;-82
2022/10/27 03:46:37;;;;;;;;;;;7.40;99.90;;;;;;5075429;28;20500;-82
2022/10/27 03:49:03;;;;;;;;;;;7.40;99.90;;;;;;5070892;28;19920;-82
2022/10/27 03:51:28;;;;;;;;;;;7.40;99.90;;;;;;5061197;28;19924;-82
2022/10/27 03:53:55;;;;;;;;;;;7.30;99.90;;;;;;5078192;28;20367;-82
2022/10/27 03:56:20;;;;;;;;;;;7.40;99.90;;;;;;5075492;28;19917;-82
2022/10/27 03:58:46;;;;;;;;;;;7.40;99.90;;;;;;5069621;28;20628;-82
2022/10/27 04:01:11;;;;;;;;;;;7.50;99.90;;;;;;5079949;28;19946;-82
2022/10/27 04:03:37;;;;;;;;;;;7.50;99.90;;;;;;5071586;28;19939;-82
2022/10/27 04:06:02;;;;;;;;;;;7.50;99.90;;;;;;5070307;28;19970;-82
2022/10/27 04:08:28;;;;;;;;;;;7.50;99.90;;;;;;5075813;28;19966;-81
2022/10/27 04:10:53;;;;;;;;;;;7.50;99.90;;;;;;5076253;28;20372;-82
2022/10/27 04:13:19;;;;;;;;;;;7.60;99.90;;;;;;5066073;28;20341;-81
2022/10/27 04:15:44;;;;;;;;;;;7.70;99.90;;;;;;5073249;28;19917;-82
2022/10/27 04:18:10;;;;;;;;;;;7.80;99.90;;;;;;5073651;28;19970;-82
2022/10/27 04:20:36;;;;;;;;;;;7.70;99.90;;;;;;5060283;28;20313;-82
2022/10/27 04:23:01;;;;;;;;;;;7.70;99.90;;;;;;5066253;28;20641;-82
2022/10/27 04:25:27;;;;;;;;;;;7.70;99.90;;;;;;5081382;28;20026;-82
2022/10/27 04:28:03;;;;;;;;;;;7.70;99.90;;;;;;5075198;28;19919;-82
2022/10/27 04:30:29;;;;;;;;;;;7.70;99.90;;;;;;5063590;28;19947;-82
2022/10/27 04:32:54;;;;;;;;;;;7.70;99.90;;;;;;5080030;28;19917;-82
2022/10/27 04:35:20;;;;;;;;;;;7.80;99.90;;;;;;5065447;28;20343;-82
2022/10/27 04:37:45;;;;;;;;;;;7.80;99.90;;;;;;5070663;28;19917;-82
2022/10/27 04:40:11;;;;;;;;;;;7.80;99.90;;;;;;5082896;28;20011;-81
2022/10/27 04:42:36;;;;;;;;;;;7.90;99.90;;;;;;5069187;28;19947;-82
2022/10/27 04:45:02;;;;;;;;;;;7.80;99.90;;;;;;5070134;28;19971;-81
2022/10/27 04:47:27;;;;;;;;;;;7.60;99.90;;;;;;5069754;28;20334;-81
2022/10/27 04:49:53;;;;;;;;;;;7.60;99.90;;;;;;5073842;28;19927;-81
2022/10/27 04:52:18;;;;;;;;;;;7.60;99.90;;;;;;5078939;28;19923;-81
2022/10/27 04:54:44;;;;;;;;;;;7.60;99.90;;;;;;5083416;28;20730;-81
2022/10/27 04:57:09;;;;;;;;;;;7.60;99.90;;;;;;5076185;28;20573;-81
2022/10/27 04:59:35;;;;;;;;;;;7.60;99.90;;;;;;5082085;28;19932;-81
2022/10/27 05:02:00;;;;;;;;;;;7.70;99.90;;;;;;5067532;28;20803;-81
2022/10/27 05:04:26;;;;;;;;;;;7.70;99.90;;;;;;5069949;28;19978;-81
2022/10/27 05:06:51;;;;;;;;;;;7.80;99.90;;;;;;5086399;28;19920;-81
2022/10/27 05:09:17;;;;;;;;;;;7.80;99.90;;;;;;5072035;28;19921;-81
2022/10/27 05:11:42;;;;;;;;;;;7.90;99.90;;;;;;5076754;28;20281;-81
2022/10/27 05:14:08;;;;;;;;;;;7.80;99.90;;;;;;5068382;28;19924;-81
2022/10/27 05:16:33;;;;;;;;;;;7.70;99.90;;;;;;5065728;28;19962;-81
2022/10/27 05:18:59;;;;;;;;;;;7.70;99.90;;;;;;5076888;28;19938;-81
2022/10/27 05:21:24;;;;;;;;;;;7.60;99.90;;;;;;5070984;28;19943;-81
2022/10/27 05:23:50;;;;;;;;;;;7.60;99.90;;;;;;5079467;28;19920;-82
2022/10/27 05:26:15;;;;;;;;;;;7.60;99.90;;;;;;5075955;28;20292;-82
2022/10/27 05:28:43;;;;;;;;;;;7.50;99.90;;;;;;5071105;28;19924;-81
2022/10/27 05:31:08;;;;;;;;;;;7.40;99.90;;;;;;5070188;28;20334;-77
2022/10/27 05:33:34;;;;;;;;;;;7.30;99.90;;;;;;5072808;28;19919;-84
2022/10/27 05:35:59;;;;;;;;;;;7.10;99.90;;;;;;5055554;28;19920;-78
2022/10/27 05:38:25;;;;;;;;;;;7.10;99.90;;;;;;5081480;28;19927;-79
2022/10/27 05:40:55;;;;;;;;;;;7.10;99.90;;;;;;5073299;28;20684;-80
2022/10/27 05:43:20;;;;;;;;;;;7.10;99.90;;;;;;5068835;28;19924;-79
2022/10/27 05:45:46;;;;;;;;;;;7.00;99.90;;;;;;5077968;28;19920;-80
2022/10/27 05:48:11;;;;;;;;;;;7.00;99.90;;;;;;5071549;28;19921;-81
2022/10/27 05:50:37;;;;;;;;;;;7.00;99.90;;;;;;5073780;28;20345;-79
2022/10/27 05:53:02;;;;;;;;;;;7.00;99.90;;;;;;5079972;28;19917;-88
2022/10/27 05:55:28;;;;;;;;;;;7.10;99.90;;;;;;5076193;28;20406;-81
2022/10/27 05:57:54;;;;;;;;;;;7.10;99.90;;;;;;5074399;28;19916;-80
2022/10/27 06:00:20;;;;;;;;;;;7.10;99.90;;;;;;5076801;28;20420;-80
2022/10/27 06:02:46;;;;;;;;;;;7.10;99.90;;;;;;5072633;28;19947;-80
2022/10/27 06:05:11;;;;;;;;;;;7.00;99.90;;;;;;5075060;28;19989;-80
2022/10/27 06:07:36;;;;;;;;;;;7.00;99.90;;;;;;5060082;28;19962;-80
2022/10/27 06:10:02;;;;;;;;;;;7.00;99.90;;;;;;5067101;28;20031;-80
2022/10/27 06:12:28;;;;;;;;;;;7.00;99.90;;;;;;5072947;28;20343;-80
2022/10/27 06:14:53;;;;;;;;;;;6.90;99.90;;;;;;5080425;28;19916;-80
2022/10/27 06:17:18;;;;;;;;;;;6.90;99.90;;;;;;5079156;28;19987;-80
2022/10/27 06:19:44;;;;;;;;;;;7.00;99.90;;;;;;5053677;28;19920;-80
2022/10/27 06:22:09;;;;;;;;;;;6.90;99.90;;;;;;5070857;28;19946;-80
2022/10/27 06:24:35;;;;;;;;;;;7.00;99.90;;;;;;5079600;28;20433;-80
2022/10/27 06:27:00;;;;;;;;;;;7.30;99.90;;;;;;5058110;28;19928;-80
2022/10/27 06:29:26;;;;;;;;;;;7.20;99.90;;;;;;5093394;28;19959;-80
2022/10/27 06:31:52;;;;;;;;;;;7.20;99.90;;;;;;5073763;28;19916;-80
2022/10/27 06:34:17;;;;;;;;;;;7.40;99.90;;;;;;5058167;28;20277;-80
2022/10/27 06:36:43;;;;;;;;;;;7.40;99.90;;;;;;5077949;28;19919;-81
2022/10/27 06:39:08;;;;;;;;;;;7.40;99.90;;;;;;5079852;28;19970;-81
2022/10/27 06:41:34;;;;;;;;;;;7.40;99.90;;;;;;5054353;28;19929;-81
2022/10/27 06:43:59;;;;;;;;;;;7.40;99.90;;;;;;5071429;28;19928;-81
2022/10/27 06:46:25;;;;;;;;;;;7.50;99.90;;;;;;5079653;28;19920;-81
2022/10/27 06:48:50;;;;;;;;;;;7.60;99.90;;;;;;5071950;28;20394;-80
2022/10/27 06:51:16;;;;;;;;;;;7.60;99.90;;;;;;5060157;28;20294;-81
2022/10/27 06:53:41;;;;;;;;;;;7.60;99.90;;;;;;5083987;28;19963;-81
2022/10/27 06:56:07;;;;;;;;;;;7.70;99.90;;;;;;5076009;28;19924;-81
2022/10/27 06:58:38;;;;;;;;;;;7.90;99.90;;;;;;5054674;28;19939;-81
2022/10/27 07:01:03;;;;;;;;;;;7.90;99.90;;;;;;5079025;28;19924;-81
2022/10/27 07:03:33;;;;;;;;;;;7.90;99.90;;;;;;5068459;28;19917;-79
2022/10/27 07:05:59;;;;;;;;;;;7.80;99.90;;;;;;5064861;28;19916;-81
2022/10/27 07:08:25;;;;;;;;;;;7.80;99.90;;;;;;5080015;28;20053;-80
2022/10/27 07:10:51;;;;;;;;;;;7.90;99.90;;;;;;5078121;28;19912;-80
2022/10/27 07:13:16;;;;;;;;;;;8.00;99.90;;;;;;5066391;28;19919;-80
2022/10/27 07:15:42;;;;;;;;;;;7.90;99.90;;;;;;5069473;28;19917;-80
2022/10/27 07:18:09;;;;;;;;;;;8.00;99.90;;;;;;5066750;28;19927;-80
2022/10/27 07:20:37;;;;;;;;;;;8.10;99.90;;;;;;5074352;28;19912;-80
2022/10/27 07:23:03;;;;;;;;;;;8.40;99.90;;;;;;5075041;28;20000;-81
2022/10/27 07:25:29;;;;;;;;;;;8.30;99.90;;;;;;5055680;28;20023;-80
2022/10/27 07:27:55;;;;;;;;;;;8.40;99.90;;;;;;5069064;28;19920;-81
2022/10/27 07:30:21;;;;;;;;;;;8.50;99.90;;;;;;5082612;28;19920;-81
2022/10/27 07:32:47;;;;;;;;;;;8.40;99.90;;;;;;5072952;28;19938;-80
2022/10/27 07:35:13;;;;;;;;;;;8.20;99.90;;;;;;5075369;28;20315;-81
2022/10/27 07:37:43;;;;;;;;;;;8.20;99.90;;;;;;5076417;28;20374;-81
2022/10/27 07:40:08;;;;;;;;;;;8.30;99.90;;;;;;5077014;28;20361;-80
2022/10/27 07:42:40;;;;;;;;;;;8.30;99.90;;;;;;5071251;28;20042;-81
2022/10/27 07:45:06;;;;;;;;;;;8.40;99.90;;;;;;5068422;28;19973;-81
2022/10/27 07:47:31;;;;;;;;;;;8.50;99.90;;;;;;5063598;28;19981;-81
2022/10/27 07:49:57;;;;;;;;;;;8.60;99.90;;;;;;5064269;28;19917;-81
2022/10/27 07:52:22;;;;;;;;;;;8.70;99.90;;;;;;5066447;28;19970;-81
2022/10/27 07:54:48;;;;;;;;;;;8.90;99.90;;;;;;5057364;28;19921;-80
2022/10/27 07:57:13;;;;;;;;;;;9.00;99.90;;;;;;5069102;28;19925;-80
2022/10/27 07:59:39;;;;;;;;;;;9.00;99.90;;;;;;5063533;28;19939;-80
2022/10/27 08:02:04;;;;;;;;;;;9.00;99.90;;;;;;5059787;28;19946;-80
2022/10/27 08:04:30;;;;;;;;;;;8.90;99.90;;;;;;5069715;28;20011;-81
2022/10/27 08:06:55;;;;;;;;;;;9.20;99.90;;;;;;5079279;28;20379;-81
2022/10/27 08:09:21;;;;;;;;;;;9.10;99.90;;;;;;5071638;28;19927;-80
2022/10/27 08:11:46;;;;;;;;;;;9.40;99.90;;;;;;5071933;28;20021;-81
2022/10/27 08:14:12;;;;;;;;;;;9.50;99.90;;;;;;5078298;28;19920;-80
2022/10/27 08:16:37;;;;;;;;;;;9.40;99.90;;;;;;5073963;28;20437;-81
2022/10/27 08:19:03;;;;;;;;;;;9.80;99.90;;;;;;5072673;28;19916;-80
2022/10/27 08:21:28;;;;;;;;;;;10.00;99.90;;;;;;5077267;28;20026;-80
2022/10/27 08:23:54;;;;;;;;;;;10.20;99.90;;;;;;5077363;28;19947;-81
2022/10/27 08:26:19;;;;;;;;;;;10.20;99.90;;;;;;5069681;28;19916;-81
2022/10/27 08:28:46;;;;;;;;;;;10.20;99.90;;;;;;5075295;28;19928;-81
2022/10/27 08:31:11;;;;;;;;;;;10.30;99.90;;;;;;5079130;28;20454;-80
2022/10/27 08:33:37;;;;;;;;;;;10.30;99.90;;;;;;5072378;28;20007;-80
2022/10/27 08:36:02;;;;;;;;;;;10.30;99.90;;;;;;5071432;28;19927;-80
2022/10/27 08:38:31;;;;;;;;;;;10.30;99.90;;;;;;5078484;28;20547;-80
2022/10/27 08:41:02;;;;;;;;;;;10.30;99.90;;;;;;5076407;28;20022;-80
2022/10/27 08:43:36;;;;;;;;;;;10.50;99.90;;;;;;5076604;28;19916;-80
2022/10/27 08:46:05;;;;;;;;;;;10.60;99.90;;;;;;5078990;28;19947;-80
2022/10/27 08:48:32;;;;;;;;;;;10.70;99.90;;;;;;5072283;28;20307;-81
2022/10/27 08:50:58;;;;;;;;;;;10.80;99.90;;;;;;5069738;28;19927;-80
2022/10/27 08:53:27;;;;;;;;;;;10.90;99.90;;;;;;5072638;28;19917;-80
2022/10/27 08:55:56;;;;;;;;;;;11.00;99.90;;;;;;5057380;28;20392;-80
2022/10/27 08:58:39;;;;;;;;;;;11.00;99.90;;;;;;5068537;28;19927;-80
2022/10/27 09:01:05;;;;;;;;;;;11.10;99.90;;;;;;5069244;28;19927;-80
2022/10/27 09:03:46;;;;;;;;;;;11.20;99.90;;;;;;5072609;28;19908;-80
2022/10/27 09:06:27;;;;;;;;;;;11.30;99.90;;;;;;5077376;28;20439;-80
2022/10/27 09:08:58;;;;;;;;;;;11.40;99.90;;;;;;5080723;28;19916;-80
2022/10/27 09:11:26;;;;;;;;;;;11.30;99.90;;;;;;5075348;28;19916;-80
2022/10/27 09:14:00;;;;;;;;;;;11.20;99.90;;;;;;5080424;28;19920;-80
2022/10/27 09:16:32;;;;;;;;;;;11.00;99.90;;;;;;5077828;28;19916;-80
2022/10/27 09:18:59;;;;;;;;;;;11.20;99.90;;;;;;5076179;28;19924;-80
2022/10/27 09:21:26;;;;;;;;;;;11.30;99.90;;;;;;5077837;28;19965;-80
2022/10/27 09:23:57;;;;;;;;;;;11.40;99.90;;;;;;5076969;28;20022;-80
2022/10/27 09:26:27;;;;;;;;;;;11.20;99.90;;;;;;5058951;28;19931;-80
2022/10/27 09:28:53;;;;;;;;;;;11.30;99.90;;;;;;5074444;28;19927;-79
2022/10/27 09:31:22;;;;;;;;;;;11.40;99.90;;;;;;5077376;28;19938;-80
2022/10/27 09:33:51;;;;;;;;;;;11.50;99.90;;;;;;5073519;28;19917;-79
2022/10/27 09:36:18;;;;;;;;;;;11.50;99.90;;;;;;5075083;28;19912;-80
2022/10/27 09:38:44;;;;;;;;;;;11.30;99.90;;;;;;5083406;28;19912;-80
2022/10/27 09:41:09;;;;;;;;;;;11.10;99.90;;;;;;5075925;28;19920;-80
2022/10/27 09:43:35;;;;;;;;;;;11.20;99.90;;;;;;5065521;28;20299;-80
2022/10/27 09:46:05;;;;;;;;;;;11.30;99.90;;;;;;5083833;28;20477;-80
2022/10/27 09:48:33;;;;;;;;;;;11.30;99.90;;;;;;5074853;28;19916;-80
2022/10/27 09:51:03;;;;;;;;;;;11.50;99.90;;;;;;5079788;28;20323;-80
2022/10/27 09:53:49;;;;;;;;;;;11.70;99.90;;;;;;5067970;28;20001;-85
2022/10/27 09:56:24;;;;;;;;;;;11.70;99.90;;;;;;5069854;28;19931;-84
2022/10/27 09:58:55;;;;;;;;;;;11.60;99.90;;;;;;5071190;28;19916;-83
2022/10/27 10:01:21;;;;;;;;;;;11.50;99.90;;;;;;5065610;28;20661;-83
2022/10/27 10:03:51;;;;;;;;;;;11.70;99.90;;;;;;5050702;28;19958;-83
2022/10/27 10:06:24;;;;;;;;;;;11.90;99.90;;;;;;5076548;28;19970;-83
2022/10/27 10:08:50;;;;;;;;;;;11.80;99.90;;;;;;5069363;28;20405;-83
2022/10/27 10:11:20;;;;;;;;;;;12.00;99.90;;;;;;5072673;28;19951;-83
2022/10/27 10:13:59;;;;;;;;;;;12.20;99.90;;;;;;5075004;28;19913;-83
2022/10/27 10:16:27;;;;;;;;;;;12.30;99.90;;;;;;5068065;28;19963;-82
2022/10/27 10:19:02;;;;;;;;;;;12.50;99.90;;;;;;5069254;28;19920;-82
2022/10/27 10:21:41;;;;;;;;;;;12.60;99.90;;;;;;5071448;28;19917;-81
2022/10/27 10:24:13;;;;;;;;;;;12.70;99.90;;;;;;5078091;28;20402;-81
2022/10/27 10:26:43;;;;;;;;;;;12.80;99.90;;;;;;5072157;28;19963;-81
2022/10/27 10:29:16;;;;;;;;;;;12.80;99.90;;;;;;5078312;28;19939;-81
2022/10/27 10:31:41;;;;;;;;;;;12.80;99.90;;;;;;5074652;28;19932;-78
2022/10/27 10:34:24;;;;;;;;;;;12.80;99.90;;;;;;5069318;28;19908;-78
2022/10/27 10:36:49;;;;;;;;;;;12.80;99.90;;;;;;5073732;28;20436;-78
2022/10/27 10:39:21;;;;;;;;;;;13.00;99.90;;;;;;5079858;28;19915;-78
2022/10/27 10:42:05;;;;;;;;;;;13.20;99.90;;;;;;5071481;28;19982;-78
2022/10/27 10:44:30;;;;;;;;;;;13.40;99.90;;;;;;5078287;28;19930;-78
2022/10/27 10:46:56;;;;;;;;;;;13.70;99.90;;;;;;5075451;28;20484;-78
2022/10/27 10:49:23;;;;;;;;;;;13.90;99.90;;;;;;5070034;28;19974;-78
2022/10/27 10:51:50;;;;;;;;;;;14.10;99.90;;;;;;5093976;28;19981;-78
2022/10/27 10:54:20;;;;;;;;;;;14.00;99.90;;;;;;5077434;28;19916;-78
2022/10/27 10:56:50;;;;;;;;;;;14.10;99.90;;;;;;5073059;28;19923;-78
2022/10/27 10:59:17;;;;;;;;;;;14.10;99.90;;;;;;5074595;28;19924;-78
2022/10/27 11:01:49;;;;;;;;;;;14.10;99.90;;;;;;5074975;28;20383;-78
2022/10/27 11:04:20;;;;;;;;;;;14.20;99.90;;;;;;5070874;28;19924;-78
2022/10/27 11:07:15;;;;;;;;;;;14.30;99.90;;;;;;5082125;28;19920;-78
2022/10/27 11:10:01;;;;;;;;;;;14.40;99.90;;;;;;5061427;28;20011;-79
2022/10/27 11:12:34;;;;;;;;;;;14.50;99.90;;;;;;5067337;28;19913;-78
2022/10/27 11:15:04;;;;;;;;;;;14.60;99.90;;;;;;5084297;28;20375;-78
2022/10/27 11:17:31;;;;;;;;;;;14.60;99.90;;;;;;5074151;28;19912;-78
2022/10/27 11:19:57;;;;;;;;;;;14.80;99.90;;;;;;5067084;28;19945;-78
2022/10/27 11:22:24;;;;;;;;;;;14.90;99.90;;;;;;5078746;28;19912;-77
2022/10/27 11:24:50;;;;;;;;;;;14.90;99.70;;;;;;5072488;28;20236;-78
2022/10/27 11:27:25;;;;;;;;;;;15.00;99.90;;;;;;5070814;28;20364;-78
2022/10/27 11:30:05;;;;;;;;;;;15.10;99.90;;;;;;5076288;28;20578;-79
2022/10/27 11:32:32;;;;;;;;;;;15.20;99.20;;;;;;5086740;28;19929;-78
2022/10/27 11:35:04;;;;;;;;;;;15.30;99.10;;;;;;5069935;28;20291;-78
2022/10/27 11:37:29;;;;;;;;;;;15.30;97.00;;;;;;5075843;28;19920;-78
2022/10/27 11:39:55;;;;;;;;;;;15.40;96.70;;;;;;5077027;28;19913;-78
2022/10/27 11:42:25;;;;;;;;;;;15.60;97.50;;;;;;5072348;28;20414;-78
2022/10/27 11:44:59;;;;;;;;;;;15.70;97.10;;;;;;5077536;28;19931;-78
2022/10/27 11:47:35;;;;;;;;;;;15.70;96.80;;;;;;5072708;28;19958;-79
2022/10/27 11:50:21;;;;;;;;;;;15.80;96.90;;;;;;5061807;28;20301;-79
2022/10/27 11:52:48;;;;;;;;;;;15.90;96.40;;;;;;5079804;28;19923;-79
2022/10/27 11:55:16;;;;;;;;;;;16.00;96.10;;;;;;5075026;28;19927;-79
2022/10/27 11:58:02;;;;;;;;;;;16.10;95.50;;;;;;5070948;28;19916;-79
2022/10/27 12:00:28;;;;;;;;;;;16.30;93.10;;;;;;5056450;28;19916;-81
2022/10/27 12:03:06;;;;;;;;;;;16.50;93.60;;;;;;5075446;28;19962;-80
2022/10/27 12:05:36;;;;;;;;;;;16.70;90.80;;;;;;5078904;28;19924;-79
2022/10/27 12:08:02;;;;;;;;;;;16.90;85.90;;;;;;5077711;28;19916;-80
2022/10/27 12:10:46;;;;;;;;;;;17.10;85.60;;;;;;5073986;28;19919;-79
2022/10/27 12:13:18;;;;;;;;;;;17.20;84.50;;;;;;5076502;28;19962;-79
2022/10/27 12:15:50;;;;;;;;;;;17.20;83.30;;;;;;5077503;28;20032;-80
2022/10/27 12:18:28;;;;;;;;;;;17.30;81.00;;;;;;5061233;28;19970;-80
2022/10/27 12:21:13;;;;;;;;;;;17.40;80.90;;;;;;5075328;28;19923;-80
2022/10/27 12:23:45;;;;;;;;;;;17.50;78.20;;;;;;5078198;28;19946;-80
2022/10/27 12:26:14;;;;;;;;;;;17.60;77.10;;;;;;5072601;28;19948;-80
2022/10/27 12:28:40;;;;;;;;;;;17.70;76.90;;;;;;5069133;28;19917;-80
2022/10/27 12:31:08;;;;;;;;;;;17.60;79.20;;;;;;5066489;28;20334;-79
2022/10/27 12:33:36;;;;;;;;;;;17.70;77.70;;;;;;5070681;28;20398;-79
2022/10/27 12:36:14;;;;;;;;;;;17.60;78.10;;;;;;5081454;28;20022;-79
2022/10/27 12:38:50;;;;;;;;;;;17.60;77.50;;;;;;5077797;28;19917;-79
2022/10/27 12:41:28;;;;;;;;;;;17.70;76.70;;;;;;5077128;28;20377;-79
2022/10/27 12:43:53;;;;;;;;;;;17.80;76.50;;;;;;5081771;28;20167;-80
2022/10/27 12:46:34;;;;;;;;;;;17.90;75.60;;;;;;5071752;28;20371;-79
2022/10/27 12:48:59;;;;;;;;;;;18.00;76.10;;;;;;5072493;28;20034;-80
2022/10/27 12:51:44;;;;;;;;;;;18.10;76.90;;;;;;5078822;28;20411;-80
2022/10/27 12:54:23;;;;;;;;;;;18.00;76.20;;;;;;5078161;28;20001;-80
2022/10/27 12:56:49;;;;;;;;;;;18.10;73.80;;;;;;5065518;28;20366;-80
2022/10/27 12:59:14;;;;;;;;;;;18.00;74.40;;;;;;5082847;28;19912;-80
2022/10/27 13:01:40;;;;;;;;;;;18.00;72.80;;;;;;5078326;28;19917;-80
2022/10/27 13:04:11;;;;;;;;;;;18.00;75.20;;;;;;5066456;28;19920;-79
2022/10/27 13:06:55;;;;;;;;;;;17.90;75.20;;;;;;5079898;28;19916;-80
2022/10/27 13:09:27;;;;;;;;;;;18.00;76.00;;;;;;5077128;28;19969;-80
2022/10/27 13:12:15;;;;;;;;;;;18.10;75.40;;;;;;5074198;28;19921;-80
2022/10/27 13:14:52;;;;;;;;;;;18.20;72.50;;;;;;5055785;28;19916;-80
2022/10/27 13:17:30;;;;;;;;;;;18.10;73.80;;;;;;5077111;28;19912;-80
2022/10/27 13:19:55;;;;;;;;;;;18.20;73.00;;;;;;5075902;28;20438;-81
2022/10/27 13:22:25;;;;;;;;;;;18.30;72.10;;;;;;5084553;28;19947;-81
2022/10/27 13:24:50;;;;;;;;;;;18.30;73.10;;;;;;5074766;28;20567;-80
2022/10/27 13:27:32;;;;;;;;;;;18.40;73.80;;;;;;5072944;28;19923;-80
2022/10/27 13:30:01;;;;;;;;;;;18.30;73.60;;;;;;5080805;28;19938;-81
2022/10/27 13:32:28;;;;;;;;;;;18.30;71.80;;;;;;5072927;28;19962;-80
2022/10/27 13:35:02;;;;;;;;;;;18.40;73.30;;;;;;5072172;28;20280;-80
2022/10/27 13:37:52;;;;;;;;;;;18.30;72.50;;;;;;5080116;28;20286;-80
2022/10/27 13:40:21;;;;;;;;;;;18.30;72.10;;;;;;5065365;28;19956;-81
2022/10/27 13:42:47;;;;;;;;;;;18.50;69.30;;;;;;5075384;28;19919;-80
2022/10/27 13:45:25;;;;;;;;;;;18.30;69.00;;;;;;5062562;28;19939;-80
2022/10/27 13:48:06;;;;;;;;;;;18.40;67.90;;;;;;5071939;28;19916;-81
2022/10/27 13:50:35;;;;;;;;;;;18.30;67.40;;;;;;5073858;28;20057;-80
2022/10/27 13:53:13;;;;;;;;;;;18.40;67.80;;;;;;5072454;28;20392;-80
2022/10/27 13:55:39;;;;;;;;;;;18.50;65.40;;;;;;5073814;28;19912;-80
2022/10/27 13:58:16;;;;;;;;;;;18.70;64.80;;;;;;5074592;28;20338;-80
2022/10/27 14:01:01;;;;;;;;;;;18.60;66.60;;;;;;5072489;28;19924;-81
2022/10/27 14:03:27;;;;;;;;;;;18.60;67.10;;;;;;5071597;28;19921;-80
2022/10/27 14:05:53;;;;;;;;;;;18.50;68.00;;;;;;5068662;28;19923;-81
2022/10/27 14:08:24;;;;;;;;;;;18.50;68.20;;;;;;5070581;28;19912;-80
2022/10/27 14:10:50;;;;;;;;;;;18.50;68.70;;;;;;5072662;28;19917;-80
2022/10/27 14:13:21;;;;;;;;;;;18.40;68.10;;;;;;5066046;28;19920;-80
2022/10/27 14:15:48;;;;;;;;;;;18.40;67.60;;;;;;5063794;28;20323;-81
2022/10/27 14:18:25;;;;;;;;;;;18.40;68.40;;;;;;5072787;28;20015;-80
2022/10/27 14:20:52;;;;;;;;;;;18.50;67.90;;;;;;5065007;28;19956;-80
2022/10/27 14:23:17;;;;;;;;;;;18.50;67.90;;;;;;5071884;28;20034;-80
2022/10/27 14:25:43;;;;;;;;;;;18.60;67.00;;;;;;5074460;28;19951;-80
2022/10/27 14:28:12;;;;;;;;;;;18.60;67.40;;;;;;5065415;28;19918;-80
2022/10/27 14:30:38;;;;;;;;;;;18.60;68.50;;;;;;5080553;28;19928;-78